Time;durP1;ratioP1;P1;durP2;ratioP2;P2;SDS_P1;SDS_P2;PMS_P1;PMS_P2;Temp;Humidity;BMP_temperature;BMP_pressure;BME280_temperature;BME280_humidity;BME280_pressure;Samples;Min_cycle;Max_cycle;Signal;HPM_P1;HPM_P2
2021/07/14 00:00:48;;;;;;;3.50;3.20;;;21.80;99.90;;;;;;4879667;29;20410;-76
2021/07/14 00:03:14;;;;;;;4.93;3.58;;;21.80;99.90;;;;;;4873553;29;20437;-76
2021/07/14 00:05:40;;;;;;;3.85;3.35;;;21.80;99.90;;;;;;4872931;29;20419;-76
2021/07/14 00:08:08;;;;;;;3.50;3.20;;;21.70;99.90;;;;;;4872567;29;21080;-76
2021/07/14 00:10:34;;;;;;;4.03;3.63;;;21.70;99.90;;;;;;4870086;29;20433;-76
2021/07/14 00:13:07;;;;;;;6.05;3.88;;;21.70;99.90;;;;;;4874954;29;20419;-76
2021/07/14 00:23:26;;;;;;;3.90;3.60;;;21.60;99.90;;;;;;4886634;29;20902;-76
2021/07/14 00:25:52;;;;;;;4.50;4.00;;;21.60;99.90;;;;;;4874496;29;20423;-75
2021/07/14 00:28:18;;;;;;;5.60;3.40;;;21.60;99.90;;;;;;4872977;29;20420;-76
2021/07/14 00:30:50;;;;;;;5.50;3.10;;;21.50;99.90;;;;;;4877150;29;20441;-76
2021/07/14 00:33:15;;;;;;;5.20;3.17;;;21.50;99.90;;;;;;4884407;29;20505;-76
2021/07/14 00:35:41;;;;;;;3.40;3.10;;;21.40;99.90;;;;;;4908257;29;20487;-77
2021/07/14 00:38:07;;;;;;;3.47;3.17;;;21.40;99.90;;;;;;4892858;29;20407;-76
2021/07/14 00:40:32;;;;;;;3.33;3.03;;;21.40;99.90;;;;;;4873939;29;20424;-75
2021/07/14 00:42:58;;;;;;;3.53;3.23;;;21.40;99.90;;;;;;4883114;29;20412;-76
2021/07/14 00:45:24;;;;;;;4.30;3.13;;;21.30;99.90;;;;;;4885889;29;20407;-76
2021/07/14 00:47:52;;;;;;;4.20;2.85;;;21.30;99.90;;;;;;4873711;29;20432;-76
2021/07/14 00:50:18;;;;;;;3.50;3.20;;;21.40;99.90;;;;;;4873623;29;20444;-75
2021/07/14 00:52:43;;;;;;;3.70;2.80;;;21.40;99.90;;;;;;4889518;29;20496;-76
2021/07/14 00:55:09;;;;;;;2.78;2.58;;;21.40;99.90;;;;;;4873250;29;20409;-76
2021/07/14 00:57:35;;;;;;;2.50;2.30;;;21.40;99.90;;;;;;4872764;29;20418;-76
2021/07/14 01:00:01;;;;;;;3.42;2.83;;;21.40;99.90;;;;;;4862774;29;20470;-76
2021/07/14 01:02:28;;;;;;;3.40;2.80;;;21.40;99.90;;;;;;4897666;29;20431;-76
2021/07/14 01:05:12;;;;;;;2.60;2.40;;;21.40;99.90;;;;;;4867247;29;20420;-76
2021/07/14 01:08:08;;;;;;;3.60;3.13;;;21.30;99.90;;;;;;4888529;29;20416;-76
2021/07/14 01:10:38;;;;;;;2.53;2.33;;;21.30;99.90;;;;;;4886839;29;20435;-76
2021/07/14 01:13:35;;;;;;;2.95;2.60;;;21.20;99.90;;;;;;4869564;29;20427;-78
2021/07/14 01:16:05;;;;;;;2.90;2.60;;;21.20;99.90;;;;;;4895297;29;20510;-78
2021/07/14 01:19:08;;;;;;;3.42;3.03;;;21.20;99.90;;;;;;4909519;29;20416;-78
2021/07/14 01:21:37;;;;;;;3.27;2.53;;;21.20;99.90;;;;;;4910644;29;20407;-77
2021/07/14 01:24:17;;;;;;;2.63;2.42;;;21.10;99.90;;;;;;4878670;29;20409;-77
2021/07/14 01:27:06;;;;;;;4.20;2.60;;;21.20;99.90;;;;;;4891624;29;20413;-78
2021/07/14 01:29:41;;;;;;;3.23;2.87;;;21.20;99.90;;;;;;4889581;29;20417;-78
2021/07/14 01:32:06;;;;;;;6.87;2.70;;;21.10;99.90;;;;;;4879362;29;20415;-77
2021/07/14 01:34:32;;;;;;;2.53;2.33;;;21.10;99.90;;;;;;4878157;29;20419;-76
2021/07/14 01:36:59;;;;;;;3.47;2.67;;;21.10;99.90;;;;;;4863282;29;20413;-76
2021/07/14 01:39:25;;;;;;;2.43;2.23;;;21.00;99.90;;;;;;4874138;29;20435;-77
2021/07/14 01:41:51;;;;;;;3.42;2.45;;;20.90;99.90;;;;;;4873565;29;20408;-77
2021/07/14 01:44:17;;;;;;;3.07;2.63;;;20.90;99.90;;;;;;4888036;29;20930;-78
2021/07/14 01:46:43;;;;;;;3.15;2.70;;;20.90;99.90;;;;;;4891083;29;20455;-78
2021/07/14 01:49:12;;;;;;;3.10;2.40;;;20.90;99.90;;;;;;4890517;29;20882;-78
2021/07/14 01:51:45;;;;;;;2.85;2.50;;;20.90;99.90;;;;;;4872938;29;20413;-77
2021/07/14 01:54:13;;;;;;;2.45;2.25;;;20.90;99.90;;;;;;4889181;29;20886;-78
2021/07/14 01:56:39;;;;;;;2.85;2.55;;;20.80;99.90;;;;;;4841743;29;20408;-77
2021/07/14 01:59:05;;;;;;;2.60;2.40;;;20.80;99.90;;;;;;4872292;29;20409;-78
2021/07/14 02:01:32;;;;;;;2.47;2.25;;;20.80;99.90;;;;;;4895279;29;20530;-78
2021/07/14 02:04:30;;;;;;;2.30;2.00;;;20.70;99.90;;;;;;4891388;29;20413;-77
2021/07/14 02:06:47;;;;;;;2.60;2.40;;;20.80;99.90;;;;;;4872271;29;20404;-77
2021/07/14 02:09:13;;;;;;;3.27;1.83;;;20.70;99.90;;;;;;4867897;29;20501;-77
2021/07/14 02:11:39;;;;;;;2.60;2.40;;;20.70;99.90;;;;;;4887750;29;20531;-77
2021/07/14 02:14:04;;;;;;;3.97;2.67;;;20.70;99.90;;;;;;4872123;29;20407;-77
2021/07/14 02:16:30;;;;;;;2.58;2.38;;;20.70;99.90;;;;;;4886712;29;20421;-77
2021/07/14 02:18:56;;;;;;;2.47;2.27;;;20.60;99.90;;;;;;4867285;29;20411;-77
2021/07/14 02:21:23;;;;;;;3.03;2.45;;;20.60;99.90;;;;;;4875809;29;20441;-77
2021/07/14 02:23:48;;;;;;;2.67;2.45;;;20.50;99.90;;;;;;4871713;29;20421;-80
2021/07/14 02:26:14;;;;;;;6.40;2.67;;;20.50;99.90;;;;;;4872886;29;20779;-77
2021/07/14 02:28:40;;;;;;;2.72;2.50;;;20.50;99.90;;;;;;4888857;29;20413;-77
2021/07/14 02:31:06;;;;;;;2.90;2.60;;;20.40;99.90;;;;;;4881371;29;20495;-76
2021/07/14 02:33:31;;;;;;;3.45;2.65;;;20.40;99.90;;;;;;4873252;29;20405;-76
2021/07/14 02:36:00;;;;;;;2.73;2.30;;;20.30;99.90;;;;;;4900293;29;20403;-77
2021/07/14 02:38:29;;;;;;;3.50;2.30;;;20.30;99.90;;;;;;4890357;29;20422;-77
2021/07/14 02:41:06;;;;;;;2.47;2.28;;;20.30;99.90;;;;;;4888924;29;20402;-76
2021/07/14 02:43:34;;;;;;;2.33;2.00;;;20.30;99.90;;;;;;4886199;29;20405;-77
2021/07/14 02:46:04;;;;;;;2.67;2.47;;;20.40;99.90;;;;;;4856780;29;20411;-76
2021/07/14 02:48:30;;;;;;;2.50;2.30;;;20.40;99.90;;;;;;4886984;29;20448;-76
2021/07/14 02:50:56;;;;;;;3.10;2.80;;;20.40;99.90;;;;;;4887630;29;20814;-77
2021/07/14 02:53:24;;;;;;;3.10;2.40;;;20.40;99.90;;;;;;4887476;29;20457;-77
2021/07/14 02:55:54;;;;;;;3.28;2.97;;;20.30;99.90;;;;;;4871443;29;20468;-76
2021/07/14 02:58:22;;;;;;;3.60;2.93;;;20.30;99.90;;;;;;4872717;29;20415;-77
2021/07/14 03:00:48;;;;;;;5.00;3.23;;;20.20;99.90;;;;;;4875027;29;20907;-76
2021/07/14 03:03:14;;;;;;;5.88;3.08;;;20.20;99.90;;;;;;4877777;29;20415;-77
2021/07/14 03:05:39;;;;;;;4.13;2.90;;;20.20;99.90;;;;;;4875018;29;20411;-77
2021/07/14 03:08:09;;;;;;;2.60;2.33;;;20.20;99.90;;;;;;4880721;29;20945;-77
2021/07/14 03:10:35;;;;;;;3.38;2.28;;;20.20;99.90;;;;;;4877283;29;20413;-77
2021/07/14 03:13:03;;;;;;;2.83;2.57;;;20.20;99.90;;;;;;4880361;29;20430;-77
2021/07/14 03:15:31;;;;;;;3.15;2.85;;;20.20;99.90;;;;;;4887245;29;20411;-77
2021/07/14 03:17:57;;;;;;;3.65;2.88;;;20.20;99.90;;;;;;4871460;29;20409;-76
2021/07/14 03:20:23;;;;;;;3.00;2.38;;;20.10;99.90;;;;;;4858870;29;20459;-77
2021/07/14 03:22:49;;;;;;;3.03;2.37;;;20.10;99.90;;;;;;4866447;29;20557;-77
2021/07/14 03:25:15;;;;;;;2.50;2.30;;;20.10;99.90;;;;;;4867959;29;20424;-77
2021/07/14 03:27:41;;;;;;;17.20;11.35;;;20.10;99.90;;;;;;4873435;29;20417;-76
2021/07/14 03:30:08;;;;;;;6.43;5.82;;;20.10;99.90;;;;;;4886876;29;20411;-76
2021/07/14 03:32:34;;;;;;;7.35;3.08;;;20.10;99.90;;;;;;4849525;29;20439;-77
2021/07/14 03:34:59;;;;;;;4.60;2.65;;;20.10;99.90;;;;;;4871414;29;20416;-77
2021/07/14 03:37:25;;;;;;;5.93;3.25;;;20.10;99.90;;;;;;4868095;29;22208;-77
2021/07/14 03:39:51;;;;;;;2.10;1.90;;;20.10;99.90;;;;;;4868687;29;20429;-77
2021/07/14 03:42:17;;;;;;;5.78;3.05;;;20.10;99.90;;;;;;4871123;29;20944;-77
2021/07/14 03:44:45;;;;;;;2.70;2.50;;;20.10;99.90;;;;;;4894037;29;20568;-76
2021/07/14 03:47:10;;;;;;;2.88;2.40;;;20.10;99.90;;;;;;4884379;29;20423;-78
2021/07/14 03:49:37;;;;;;;3.20;2.20;;;20.20;99.90;;;;;;4884126;29;20420;-76
2021/07/14 03:52:03;;;;;;;3.75;2.58;;;20.20;99.90;;;;;;4869831;29;20435;-78
2021/07/14 03:54:30;;;;;;;2.30;2.10;;;20.20;99.90;;;;;;4858735;29;21009;-77
2021/07/14 03:56:57;;;;;;;2.80;2.53;;;20.20;99.90;;;;;;4865142;29;20515;-77
2021/07/14 03:59:22;;;;;;;5.00;2.50;;;20.20;99.90;;;;;;4869832;29;20460;-77
2021/07/14 04:01:48;;;;;;;3.03;2.70;;;20.30;99.90;;;;;;4862067;29;20854;-78
2021/07/14 04:04:14;;;;;;;2.77;2.33;;;20.30;99.90;;;;;;4878487;29;20806;-78
2021/07/14 04:06:40;;;;;;;2.83;2.47;;;20.20;99.90;;;;;;4870858;29;20449;-78
2021/07/14 04:09:21;;;;;;;3.57;2.50;;;20.20;99.90;;;;;;4871729;29;20415;-77
2021/07/14 04:11:55;;;;;;;2.73;2.53;;;20.20;99.90;;;;;;4887843;29;20412;-78
2021/07/14 04:14:21;;;;;;;3.70;3.40;;;20.20;99.90;;;;;;4874264;29;20458;-77
2021/07/14 04:16:47;;;;;;;3.10;2.80;;;20.30;99.90;;;;;;4859971;29;20411;-77
2021/07/14 04:19:13;;;;;;;4.38;2.58;;;20.30;99.90;;;;;;4866527;29;20424;-78
2021/07/14 04:21:38;;;;;;;2.47;2.28;;;20.30;99.90;;;;;;4873128;29;20444;-77
2021/07/14 04:24:05;;;;;;;2.43;2.23;;;20.40;99.90;;;;;;4877536;29;20413;-77
2021/07/14 04:26:31;;;;;;;3.08;2.60;;;20.40;99.90;;;;;;4856823;29;20447;-78
2021/07/14 04:28:56;;;;;;;8.18;2.10;;;20.40;99.90;;;;;;4873007;29;20436;-77
2021/07/14 04:31:22;;;;;;;2.53;2.33;;;20.40;99.90;;;;;;4871847;29;20410;-77
2021/07/14 04:33:48;;;;;;;3.72;2.10;;;20.40;99.90;;;;;;4857627;29;20414;-77
2021/07/14 04:36:13;;;;;;;3.43;2.40;;;20.50;99.90;;;;;;4872750;29;20471;-77
2021/07/14 04:38:39;;;;;;;2.57;2.07;;;20.50;99.90;;;;;;4872595;29;20415;-78
2021/07/14 04:41:05;;;;;;;3.05;2.30;;;20.60;99.90;;;;;;4872785;29;20411;-78
2021/07/14 04:43:31;;;;;;;3.10;2.30;;;20.70;99.90;;;;;;4871463;29;20480;-77
2021/07/14 04:45:58;;;;;;;2.97;2.60;;;20.70;99.90;;;;;;4873991;29;20484;-77
2021/07/14 04:48:24;;;;;;;3.25;2.60;;;20.70;99.90;;;;;;4888991;29;20767;-78
2021/07/14 04:50:50;;;;;;;2.40;2.17;;;20.70;99.90;;;;;;4888678;29;20909;-77
2021/07/14 04:53:15;;;;;;;2.35;2.15;;;20.80;99.90;;;;;;4888991;29;20517;-77
2021/07/14 04:55:41;;;;;;;2.53;2.03;;;20.80;99.90;;;;;;4873297;29;20428;-77
2021/07/14 04:58:07;;;;;;;3.78;2.65;;;20.80;99.90;;;;;;4888719;29;20545;-79
2021/07/14 05:00:33;;;;;;;2.60;2.40;;;20.80;99.90;;;;;;4876792;29;20905;-79
2021/07/14 05:02:59;;;;;;;2.83;2.63;;;20.80;99.90;;;;;;4896292;29;20399;-78
2021/07/14 05:05:24;;;;;;;2.60;2.40;;;20.80;99.90;;;;;;4891429;29;21012;-79
2021/07/14 05:07:50;;;;;;;4.00;2.67;;;20.90;99.90;;;;;;4878745;29;20420;-79
2021/07/14 05:10:17;;;;;;;3.80;2.60;;;20.90;99.90;;;;;;4893447;29;20789;-78
2021/07/14 05:12:42;;;;;;;2.42;2.22;;;21.00;99.90;;;;;;4876439;29;20452;-78
2021/07/14 05:15:09;;;;;;;5.18;2.42;;;21.10;99.90;;;;;;4876015;29;20777;-78
2021/07/14 05:17:35;;;;;;;2.85;2.35;;;21.30;99.90;;;;;;4862757;29;20482;-78
2021/07/14 05:20:02;;;;;;;5.10;2.33;;;21.40;99.90;;;;;;4862265;29;20959;-78
2021/07/14 05:22:31;;;;;;;2.60;2.40;;;21.40;99.90;;;;;;4895821;29;20407;-78
2021/07/14 05:25:07;;;;;;;2.40;2.20;;;21.40;99.90;;;;;;4872047;29;20434;-79
2021/07/14 05:28:22;;;;;;;2.42;2.20;;;21.50;99.90;;;;;;4861517;29;20433;-79
2021/07/14 05:31:11;;;;;;;2.53;2.33;;;21.30;99.90;;;;;;4818715;29;20423;-79
2021/07/14 05:33:42;;;;;;;2.00;1.88;;;21.40;99.90;;;;;;4854727;29;20930;-79
2021/07/14 05:36:12;;;;;;;2.00;1.90;;;21.40;99.90;;;;;;4875916;29;20412;-79
2021/07/14 05:38:48;;;;;;;2.30;2.10;;;21.50;99.90;;;;;;4837132;29;20395;-80
2021/07/14 05:41:36;;;;;;;5.10;2.53;;;21.60;99.90;;;;;;4843078;29;21354;-79
2021/07/14 05:44:16;;;;;;;2.70;2.30;;;21.60;99.90;;;;;;4866503;29;20935;-80
2021/07/14 05:46:49;;;;;;;3.03;2.38;;;21.70;99.90;;;;;;4816354;29;20797;-80
2021/07/14 05:49:20;;;;;;;2.45;2.25;;;21.80;99.90;;;;;;4848920;29;20475;-80
2021/07/14 05:51:57;;;;;;;2.25;2.05;;;21.80;99.90;;;;;;4861520;29;20910;-80
2021/07/14 05:54:24;;;;;;;2.38;2.22;;;21.90;99.90;;;;;;4850136;29;20453;-79
2021/07/14 05:56:54;;;;;;;2.55;2.25;;;21.80;99.90;;;;;;4865468;29;20444;-80
2021/07/14 05:59:23;;;;;;;2.42;2.22;;;21.80;99.90;;;;;;4875805;29;21086;-80
2021/07/14 06:01:49;;;;;;;2.47;2.28;;;21.80;99.90;;;;;;4890192;29;20476;-79
2021/07/14 06:04:14;;;;;;;2.70;2.40;;;21.80;99.90;;;;;;4882984;29;20412;-79
2021/07/14 06:06:40;;;;;;;2.13;1.93;;;21.70;99.90;;;;;;4888747;29;20411;-80
2021/07/14 06:09:06;;;;;;;3.90;2.45;;;21.70;99.90;;;;;;4871018;29;20426;-79
2021/07/14 06:11:31;;;;;;;1.92;1.83;;;21.80;99.90;;;;;;4857563;29;22544;-79
2021/07/14 06:13:57;;;;;;;2.37;2.17;;;21.70;99.90;;;;;;4875402;29;20397;-80
2021/07/14 06:16:23;;;;;;;2.47;2.28;;;21.80;99.90;;;;;;4864141;29;20452;-80
2021/07/14 06:18:49;;;;;;;2.30;2.15;;;21.90;99.90;;;;;;4886762;29;20420;-79
2021/07/14 06:21:15;;;;;;;5.30;2.40;;;22.00;99.90;;;;;;4890004;29;20890;-78
2021/07/14 06:23:40;;;;;;;2.53;2.27;;;22.00;99.90;;;;;;4892629;29;20415;-79
2021/07/14 06:26:06;;;;;;;2.28;1.98;;;22.10;99.90;;;;;;4878696;29;20397;-80
2021/07/14 06:28:32;;;;;;;2.40;2.20;;;22.10;99.90;;;;;;4855521;29;20508;-79
2021/07/14 06:30:59;;;;;;;2.13;2.00;;;22.20;99.90;;;;;;4861703;29;20391;-81
2021/07/14 06:33:28;;;;;;;2.33;2.13;;;22.40;99.90;;;;;;4880053;29;20929;-80
2021/07/14 06:35:54;;;;;;;2.70;2.50;;;22.50;99.90;;;;;;4851374;29;20385;-80
2021/07/14 06:38:26;;;;;;;8.23;2.33;;;22.50;99.90;;;;;;4881339;29;20788;-79
2021/07/14 06:40:53;;;;;;;2.47;2.28;;;22.50;99.90;;;;;;4884413;29;20501;-80
2021/07/14 06:43:19;;;;;;;2.25;2.05;;;22.60;99.90;;;;;;4884565;29;20468;-80
2021/07/14 06:45:49;;;;;;;2.78;2.33;;;22.70;99.90;;;;;;4870117;29;20415;-80
2021/07/14 06:48:15;;;;;;;2.03;1.92;;;22.90;99.90;;;;;;4872095;29;20468;-79
2021/07/14 06:50:41;;;;;;;2.58;2.13;;;22.90;99.90;;;;;;4890388;29;20504;-79
2021/07/14 06:53:07;;;;;;;2.20;1.95;;;23.00;99.90;;;;;;4869949;29;20815;-80
2021/07/14 06:55:33;;;;;;;1.90;1.80;;;23.00;99.90;;;;;;4883464;29;20407;-79
2021/07/14 06:57:59;;;;;;;1.92;1.83;;;23.00;99.90;;;;;;4859089;29;21014;-79
2021/07/14 07:00:25;;;;;;;2.05;1.92;;;23.10;99.90;;;;;;4893216;29;20503;-80
2021/07/14 07:02:51;;;;;;;2.00;1.90;;;23.20;99.90;;;;;;4889768;29;20502;-79
2021/07/14 07:05:18;;;;;;;1.97;1.83;;;23.20;99.90;;;;;;4875363;29;20419;-79
2021/07/14 07:07:47;;;;;;;1.80;1.70;;;23.30;99.90;;;;;;4881310;29;20435;-79
2021/07/14 07:10:12;;;;;;;1.98;1.83;;;23.50;99.90;;;;;;4857760;29;20400;-79
2021/07/14 07:12:38;;;;;;;1.93;1.80;;;23.80;99.90;;;;;;4875529;29;20436;-79
2021/07/14 07:15:06;;;;;;;2.00;1.90;;;24.00;99.90;;;;;;4874613;29;20409;-79
2021/07/14 07:17:35;;;;;;;2.00;1.90;;;24.10;99.90;;;;;;4883436;29;20416;-79
2021/07/14 07:20:05;;;;;;;2.15;2.05;;;24.30;99.90;;;;;;4881504;29;20407;-79
2021/07/14 07:22:31;;;;;;;2.27;2.07;;;24.40;99.90;;;;;;4864212;29;20428;-79
2021/07/14 07:25:26;;;;;;;2.35;2.15;;;24.50;99.90;;;;;;4882922;29;20418;-79
2021/07/14 07:27:58;;;;;;;2.22;2.03;;;24.60;99.90;;;;;;4872803;29;20405;-78
2021/07/14 07:30:27;;;;;;;2.38;2.17;;;24.70;99.90;;;;;;4888571;29;20408;-82
2021/07/14 07:32:53;;;;;;;2.03;1.92;;;24.90;99.90;;;;;;4869140;29;20514;-81
2021/07/14 07:35:19;;;;;;;2.33;2.13;;;25.00;99.90;;;;;;4859301;29;20424;-80
2021/07/14 07:37:44;;;;;;;2.17;2.08;;;25.00;99.90;;;;;;4865988;29;20832;-79
2021/07/14 07:40:11;;;;;;;2.17;1.98;;;25.00;99.90;;;;;;4855138;29;20544;-80
2021/07/14 07:42:37;;;;;;;1.92;1.83;;;25.20;99.90;;;;;;4872024;29;20411;-80
2021/07/14 07:45:07;;;;;;;2.20;1.85;;;25.30;99.90;;;;;;4880754;29;20767;-79
2021/07/14 07:47:33;;;;;;;2.45;2.22;;;25.10;99.90;;;;;;4877559;29;20406;-79
2021/07/14 07:49:59;;;;;;;1.90;1.80;;;25.00;99.90;;;;;;4892790;29;20876;-80
2021/07/14 07:52:24;;;;;;;2.10;2.00;;;25.20;99.90;;;;;;4878793;29;20944;-79
2021/07/14 07:54:51;;;;;;;1.92;1.83;;;25.30;99.90;;;;;;4894629;29;20457;-76
2021/07/14 07:57:16;;;;;;;1.80;1.70;;;25.30;99.90;;;;;;4865114;29;20416;-77
2021/07/14 07:59:42;;;;;;;1.93;1.83;;;25.50;99.90;;;;;;4845579;29;20446;-76
2021/07/14 08:02:08;;;;;;;1.90;1.80;;;25.60;99.90;;;;;;4876713;29;20930;-77
2021/07/14 08:04:33;;;;;;;1.90;1.80;;;25.80;99.90;;;;;;4889279;29;20412;-77
2021/07/14 08:06:59;;;;;;;2.50;2.30;;;25.80;99.90;;;;;;4860569;29;20444;-75
2021/07/14 08:09:25;;;;;;;2.10;2.00;;;25.70;99.90;;;;;;4878452;29;21008;-77
2021/07/14 08:11:51;;;;;;;2.15;1.98;;;25.70;99.90;;;;;;4879883;29;20436;-80
2021/07/14 08:14:16;;;;;;;3.38;2.45;;;25.60;99.90;;;;;;4870162;29;20969;-79
2021/07/14 08:16:45;;;;;;;2.22;1.90;;;25.30;99.90;;;;;;4880955;29;20779;-81
2021/07/14 08:19:14;;;;;;;1.90;1.80;;;25.30;99.90;;;;;;4854892;29;20403;-80
2021/07/14 08:21:40;;;;;;;1.63;1.53;;;25.20;99.90;;;;;;4884340;29;20421;-77
2021/07/14 08:24:06;;;;;;;1.90;1.80;;;25.30;99.90;;;;;;4882473;29;20428;-78
2021/07/14 08:26:32;;;;;;;1.83;1.73;;;25.20;99.90;;;;;;4885236;29;20429;-78
2021/07/14 08:29:06;;;;;;;2.58;1.85;;;25.20;99.90;;;;;;4841232;29;20814;-76
2021/07/14 08:31:32;;;;;;;2.00;1.90;;;25.00;99.90;;;;;;4879135;29;20485;-78
2021/07/14 08:33:59;;;;;;;2.63;1.80;;;25.20;99.90;;;;;;4888771;29;20419;-78
2021/07/14 08:36:25;;;;;;;2.30;2.00;;;25.10;99.90;;;;;;4900656;29;20511;-76
2021/07/14 08:38:50;;;;;;;2.15;2.05;;;24.90;99.90;;;;;;4874263;29;20409;-75
2021/07/14 08:41:18;;;;;;;6.55;2.50;;;24.60;99.90;;;;;;4865144;29;20420;-78
2021/07/14 08:43:44;;;;;;;2.40;2.20;;;24.40;99.90;;;;;;4881290;29;20414;-78
2021/07/14 08:46:10;;;;;;;2.27;2.07;;;24.50;99.90;;;;;;4882146;29;20416;-78
2021/07/14 08:48:36;;;;;;;2.47;2.27;;;24.50;99.90;;;;;;4889260;29;20443;-78
2021/07/14 08:51:02;;;;;;;2.30;2.13;;;24.40;99.90;;;;;;4882263;29;20448;-75
2021/07/14 08:53:28;;;;;;;2.60;2.40;;;24.40;99.90;;;;;;4892801;29;20431;-75
2021/07/14 08:55:54;;;;;;;3.70;2.40;;;24.20;99.90;;;;;;4864943;29;20925;-75
2021/07/14 08:58:21;;;;;;;2.33;2.00;;;24.20;99.90;;;;;;4883501;29;20501;-74
2021/07/14 09:00:48;;;;;;;2.67;2.17;;;24.20;99.90;;;;;;4889010;29;20430;-76
2021/07/14 09:03:14;;;;;;;4.72;2.42;;;24.20;99.90;;;;;;4877039;29;20488;-75
2021/07/14 09:05:39;;;;;;;2.57;2.30;;;24.20;99.90;;;;;;4874021;29;20408;-76
2021/07/14 09:08:05;;;;;;;2.58;2.38;;;23.90;99.90;;;;;;4871269;29;20474;-75
2021/07/14 09:10:31;;;;;;;2.70;2.50;;;23.90;99.90;;;;;;4867963;29;20421;-76
2021/07/14 09:12:57;;;;;;;2.47;2.27;;;23.70;99.90;;;;;;4873986;29;20413;-75
2021/07/14 09:15:26;;;;;;;3.67;2.50;;;23.70;99.90;;;;;;4888055;29;20417;-78
2021/07/14 09:17:52;;;;;;;2.70;2.50;;;23.70;99.90;;;;;;4864890;29;20484;-77
2021/07/14 09:20:21;;;;;;;2.85;2.40;;;23.60;99.90;;;;;;4858064;29;20775;-77
2021/07/14 09:22:48;;;;;;;2.55;1.80;;;23.50;99.90;;;;;;4858081;29;20442;-77
2021/07/14 09:25:15;;;;;;;2.10;2.00;;;23.50;99.90;;;;;;4870480;29;20435;-78
2021/07/14 09:27:58;;;;;;;2.85;2.42;;;23.40;99.90;;;;;;4889027;29;20401;-77
2021/07/14 09:30:26;;;;;;;2.57;2.37;;;23.50;99.90;;;;;;4889827;29;20412;-77
2021/07/14 09:32:55;;;;;;;2.60;2.33;;;23.60;99.90;;;;;;4888615;29;20417;-77
2021/07/14 09:35:27;;;;;;;2.60;2.40;;;23.60;99.90;;;;;;4888606;29;20802;-78
2021/07/14 09:37:54;;;;;;;4.75;2.33;;;23.70;99.90;;;;;;4881071;29;20504;-77
2021/07/14 09:40:21;;;;;;;3.25;2.53;;;23.60;99.90;;;;;;4873857;29;20969;-77
2021/07/14 09:42:56;;;;;;;2.78;2.58;;;23.50;99.90;;;;;;4887821;29;20404;-76
2021/07/14 09:45:38;;;;;;;2.30;2.20;;;23.50;99.90;;;;;;4886034;29;20427;-76
2021/07/14 09:48:05;;;;;;;8.73;2.40;;;23.50;99.90;;;;;;4893129;29;20753;-77
2021/07/14 09:50:35;;;;;;;1.83;1.73;;;23.60;99.90;;;;;;4882239;29;20412;-77
2021/07/14 09:53:05;;;;;;;1.90;1.80;;;23.80;99.90;;;;;;4871993;29;20427;-77
2021/07/14 09:55:31;;;;;;;2.25;1.65;;;24.00;99.90;;;;;;4883075;29;20411;-76
2021/07/14 09:58:10;;;;;;;2.10;1.90;;;24.10;99.90;;;;;;4862873;29;20412;-77
2021/07/14 10:00:44;;;;;;;1.85;1.75;;;24.30;99.90;;;;;;4883920;29;20495;-78
2021/07/14 10:03:18;;;;;;;2.58;1.80;;;24.50;99.90;;;;;;4879630;29;20415;-76
2021/07/14 10:05:43;;;;;;;2.05;1.95;;;24.50;99.90;;;;;;4887212;29;20882;-77
2021/07/14 10:08:16;;;;;;;2.20;2.00;;;24.50;99.90;;;;;;4889101;29;20467;-77
2021/07/14 10:10:42;;;;;;;3.28;2.33;;;24.60;99.90;;;;;;4891616;29;20897;-76
2021/07/14 10:13:08;;;;;;;1.95;1.85;;;24.60;99.90;;;;;;4889961;29;20425;-76
2021/07/14 10:15:34;;;;;;;2.08;1.90;;;24.70;99.90;;;;;;4883927;29;20468;-78
2021/07/14 10:17:59;;;;;;;2.10;2.00;;;24.80;99.90;;;;;;4878658;29;20942;-77
2021/07/14 10:20:33;;;;;;;1.95;1.83;;;25.00;99.90;;;;;;4885154;29;20411;-77
2021/07/14 10:23:00;;;;;;;1.80;1.70;;;25.10;99.90;;;;;;4879159;29;20446;-76
2021/07/14 10:25:27;;;;;;;2.95;2.10;;;25.30;99.90;;;;;;4905636;29;20425;-77
2021/07/14 10:27:53;;;;;;;4.45;1.95;;;25.50;99.90;;;;;;4888926;29;20413;-76
2021/07/14 10:30:19;;;;;;;2.40;2.20;;;25.70;99.90;;;;;;4869906;29;20418;-76
2021/07/14 10:32:45;;;;;;;2.38;2.08;;;25.50;99.90;;;;;;4900471;29;21069;-77
2021/07/14 10:35:14;;;;;;;2.63;2.07;;;25.60;99.90;;;;;;4867324;29;20500;-77
2021/07/14 10:37:57;;;;;;;2.50;2.25;;;25.60;99.90;;;;;;4888027;29;20417;-76
2021/07/14 10:40:23;;;;;;;2.35;2.15;;;25.50;99.90;;;;;;4898826;29;20865;-76
2021/07/14 10:42:49;;;;;;;2.75;2.55;;;25.60;99.90;;;;;;4842667;29;20457;-76
2021/07/14 10:45:15;;;;;;;2.90;2.58;;;25.70;99.90;;;;;;4895352;29;20441;-77
2021/07/14 10:47:40;;;;;;;2.92;2.63;;;25.70;99.90;;;;;;4888720;29;20471;-76
2021/07/14 10:50:07;;;;;;;2.92;2.60;;;25.80;99.90;;;;;;4891232;29;20408;-76
2021/07/14 10:52:33;;;;;;;2.97;2.35;;;25.90;99.90;;;;;;4857797;29;20421;-76
2021/07/14 10:54:59;;;;;;;3.07;2.87;;;26.00;99.90;;;;;;4888586;29;20405;-76
2021/07/14 10:57:24;;;;;;;2.70;2.42;;;26.20;99.90;;;;;;4888602;29;20400;-77
2021/07/14 10:59:50;;;;;;;2.47;2.23;;;26.50;99.90;;;;;;4871905;29;20451;-77
2021/07/14 11:02:16;;;;;;;2.47;2.38;;;27.00;99.90;;;;;;4866903;29;20421;-77
2021/07/14 11:04:49;;;;;;;2.28;2.17;;;27.20;99.90;;;;;;4888591;29;20426;-76
2021/07/14 11:07:15;;;;;;;2.45;2.25;;;27.10;99.90;;;;;;4879366;29;20502;-75
2021/07/14 11:09:46;;;;;;;2.20;2.10;;;26.80;99.90;;;;;;4891061;29;20490;-77
2021/07/14 11:12:27;;;;;;;3.30;2.22;;;26.40;99.90;;;;;;4894981;29;20966;-75
2021/07/14 11:14:57;;;;;;;2.60;2.25;;;26.20;99.90;;;;;;4872408;29;20428;-76
2021/07/14 11:17:29;;;;;;;2.50;2.30;;;26.30;99.90;;;;;;4852363;29;20819;-76
2021/07/14 11:19:55;;;;;;;2.58;2.38;;;26.20;99.90;;;;;;4886926;29;20510;-77
2021/07/14 11:22:40;;;;;;;2.67;2.47;;;26.30;99.90;;;;;;4873141;29;20436;-78
2021/07/14 11:25:24;;;;;;;3.03;2.70;;;26.30;99.90;;;;;;4868055;29;20419;-76
2021/07/14 11:27:53;;;;;;;5.10;2.40;;;26.50;99.90;;;;;;4887806;29;25190;-76
2021/07/14 11:30:25;;;;;;;2.17;2.08;;;26.60;99.90;;;;;;4884580;29;20413;-77
2021/07/14 11:32:57;;;;;;;2.75;2.55;;;27.00;99.90;;;;;;4879225;29;20429;-78
2021/07/14 11:35:26;;;;;;;3.47;2.50;;;27.30;99.90;;;;;;4876934;29;20755;-78
2021/07/14 11:37:51;;;;;;;3.35;2.65;;;27.80;99.90;;;;;;4874247;29;20436;-78
2021/07/14 11:40:20;;;;;;;2.43;2.23;;;28.20;99.90;;;;;;4872691;29;20436;-78
2021/07/14 11:42:58;;;;;;;3.63;2.35;;;28.30;99.90;;;;;;4874162;29;20420;-78
2021/07/14 11:45:33;;;;;;;2.57;2.37;;;28.40;99.90;;;;;;4879598;29;20409;-78
2021/07/14 11:48:02;;;;;;;2.10;2.00;;;28.10;99.90;;;;;;4890750;29;20420;-78
2021/07/14 11:50:45;;;;;;;2.53;2.33;;;28.10;99.90;;;;;;4885709;29;20456;-78
2021/07/14 11:53:35;;;;;;;2.65;2.45;;;28.10;99.90;;;;;;4890586;29;20860;-77
2021/07/14 11:56:07;;;;;;;2.70;2.50;;;28.50;99.90;;;;;;4885330;29;20405;-76
2021/07/14 11:58:41;;;;;;;2.45;2.25;;;29.20;99.90;;;;;;4884209;29;20417;-77
2021/07/14 12:01:22;;;;;;;8.18;2.80;;;30.00;99.90;;;;;;4885986;29;20409;-75
2021/07/14 12:04:03;;;;;;;2.00;1.90;;;30.10;99.90;;;;;;4872297;29;20416;-75
2021/07/14 12:06:37;;;;;;;2.00;1.90;;;29.80;99.90;;;;;;4884716;29;20417;-76
2021/07/14 12:09:03;;;;;;;2.20;2.05;;;30.00;99.90;;;;;;4877366;29;20412;-76
2021/07/14 12:11:29;;;;;;;2.20;2.00;;;30.20;99.90;;;;;;4883561;29;20423;-76
2021/07/14 12:13:56;;;;;;;2.53;2.33;;;29.90;99.90;;;;;;4870580;29;20408;-75
2021/07/14 12:16:28;;;;;;;2.58;2.30;;;30.00;99.90;;;;;;4882226;29;20489;-76
2021/07/14 12:18:55;;;;;;;2.97;2.30;;;29.90;99.90;;;;;;4886297;29;20408;-76
2021/07/14 12:21:33;;;;;;;4.40;2.22;;;29.80;99.90;;;;;;4890674;29;20408;-76
2021/07/14 12:23:59;;;;;;;1.80;1.70;;;29.80;99.90;;;;;;4855636;29;20512;-76
2021/07/14 12:26:24;;;;;;;1.60;1.50;;;29.80;99.90;;;;;;4893684;29;21034;-75
2021/07/14 12:28:50;;;;;;;3.47;1.57;;;29.60;99.90;;;;;;4879245;29;20411;-75
2021/07/14 12:31:19;;;;;;;1.52;1.42;;;29.40;99.90;;;;;;4882886;29;20427;-76
2021/07/14 12:33:49;;;;;;;1.65;1.55;;;29.50;99.90;;;;;;4864780;29;20845;-77
2021/07/14 12:36:16;;;;;;;1.60;1.50;;;29.70;99.90;;;;;;4885204;29;20491;-77
2021/07/14 12:38:41;;;;;;;1.23;1.20;;;30.10;99.90;;;;;;4874001;29;21198;-76
2021/07/14 12:41:10;;;;;;;1.50;1.40;;;30.20;99.90;;;;;;4878477;29;20436;-76
2021/07/14 12:43:35;;;;;;;1.50;1.40;;;30.30;99.90;;;;;;4877877;29;20946;-75
2021/07/14 12:46:01;;;;;;;1.60;1.50;;;30.30;99.90;;;;;;4889965;29;20417;-75
2021/07/14 12:48:28;;;;;;;1.48;1.38;;;30.40;99.90;;;;;;4878943;29;21008;-76
2021/07/14 12:50:54;;;;;;;1.70;1.60;;;30.50;99.90;;;;;;4889824;29;20439;-75
2021/07/14 12:53:20;;;;;;;1.50;1.40;;;30.70;99.90;;;;;;4868597;29;20455;-76
2021/07/14 12:55:46;;;;;;;2.60;2.40;;;31.10;99.90;;;;;;4884865;29;20468;-77
2021/07/14 12:58:15;;;;;;;1.50;1.40;;;31.50;99.90;;;;;;4863580;29;20468;-77
2021/07/14 13:00:42;;;;;;;2.50;1.40;;;32.10;99.90;;;;;;4864742;29;20426;-76
2021/07/14 13:03:09;;;;;;;1.50;1.40;;;32.30;99.90;;;;;;4869085;29;20428;-77